createdAt,value
2023-03-23T15:58:45.653Z,22.63
2023-03-23T16:01:13.951Z,22.65
2023-03-23T16:03:49.036Z,22.65
2023-03-23T16:06:23.401Z,22.64
2023-03-23T16:08:54.917Z,22.64
2023-03-23T16:11:22.719Z,22.62
2023-03-23T16:13:49.606Z,22.64
2023-03-23T16:16:19.354Z,22.63
2023-03-23T16:18:45.917Z,22.61
2023-03-23T16:21:12.652Z,22.61
2023-03-23T16:23:40.804Z,22.60
2023-03-23T16:26:07.397Z,22.59
2023-03-23T16:28:33.887Z,22.58
2023-03-23T16:31:00.627Z,22.58
2023-03-23T16:33:27.273Z,22.57
2023-03-23T16:35:53.894Z,22.54
2023-03-23T16:38:20.488Z,22.54
2023-03-23T16:40:47.462Z,22.54
2023-03-23T16:43:14.172Z,22.54
2023-03-23T16:45:44.090Z,22.53
2023-03-23T16:48:12.513Z,22.52
2023-03-23T16:50:39.385Z,22.51
2023-03-23T16:53:08.076Z,22.51
2023-03-23T16:55:36.806Z,22.49
2023-03-23T16:58:15.430Z,22.48
2023-03-23T17:00:44.234Z,22.46
2023-03-23T17:03:11.384Z,22.45
2023-03-23T17:05:38.100Z,22.46
2023-03-23T17:08:05.330Z,22.43
2023-03-23T17:10:32.298Z,22.44
2023-03-23T17:12:59.035Z,22.44
2023-03-23T17:15:25.850Z,22.45
2023-03-23T17:17:53.050Z,22.44
2023-03-23T17:20:20.079Z,22.44
2023-03-23T17:22:46.882Z,22.43
2023-03-23T17:25:13.808Z,22.41
2023-03-23T17:27:41.130Z,22.39
2023-03-23T17:30:08.964Z,22.40
2023-03-23T17:32:36.699Z,22.39
2023-03-23T17:35:05.580Z,22.39
2023-03-23T17:37:33.309Z,22.38
2023-03-23T17:40:00.184Z,22.37
2023-03-23T17:42:27.158Z,22.38
2023-03-23T17:44:53.751Z,22.37
2023-03-23T17:47:20.576Z,22.41
2023-03-23T17:49:47.881Z,22.41
2023-03-23T17:52:14.585Z,22.41
2023-03-23T17:54:41.229Z,22.39
2023-03-23T17:57:07.928Z,22.40
2023-03-23T17:59:34.552Z,22.41
2023-03-23T18:02:01.129Z,22.40
2023-03-23T18:04:28.082Z,22.40
2023-03-23T18:06:56.651Z,22.41
2023-03-23T18:09:25.209Z,22.41
2023-03-23T18:11:52.635Z,22.40
2023-03-23T18:14:19.281Z,22.41
2023-03-23T18:16:46.109Z,22.40
2023-03-23T18:19:12.725Z,22.41
2023-03-23T18:21:39.343Z,22.41
2023-03-23T18:24:06.316Z,22.40
2023-03-23T18:26:32.878Z,22.40
2023-03-23T18:28:59.618Z,22.39
2023-03-23T18:31:26.288Z,22.40
2023-03-23T18:33:55.016Z,22.41
2023-03-23T18:36:24.163Z,22.39
2023-03-23T18:38:51.099Z,22.39
2023-03-23T18:41:18.637Z,22.38
2023-03-23T18:43:46.146Z,22.36
2023-03-23T18:46:12.758Z,22.36
2023-03-23T18:48:39.341Z,22.37
2023-03-23T18:51:06.236Z,22.38
2023-03-23T18:53:33.138Z,22.37
2023-03-23T18:56:09.157Z,22.37
2023-03-23T18:58:35.985Z,22.36
2023-03-23T19:01:07.476Z,22.37
2023-03-23T19:03:40.895Z,22.37
2023-03-23T19:06:16.354Z,22.36
2023-03-23T19:08:43.295Z,22.36
2023-03-23T19:11:12.301Z,22.38
2023-03-23T19:13:42.144Z,22.37
2023-03-23T19:16:14.116Z,22.35
2023-03-23T19:18:40.705Z,22.34
2023-03-23T19:21:14.936Z,22.34
2023-03-23T19:23:43.599Z,22.34
2023-03-23T19:26:21.839Z,22.34
2023-03-23T19:29:23.158Z,22.34
2023-03-23T19:31:34.950Z,22.32
2023-03-23T19:34:01.530Z,22.32
2023-03-23T19:36:28.157Z,22.33
2023-03-23T19:38:55.064Z,22.32
2023-03-23T19:41:22.000Z,22.31
2023-03-23T19:43:48.575Z,22.31
2023-03-23T19:46:15.822Z,22.33
2023-03-23T19:48:42.752Z,22.31
2023-03-23T19:51:11.917Z,22.33
2023-03-23T19:53:39.607Z,22.30
2023-03-23T19:56:12.778Z,22.32
2023-03-23T19:58:39.702Z,22.31
2023-03-23T20:01:06.945Z,22.32
2023-03-23T20:03:33.548Z,22.29
2023-03-23T20:06:07.236Z,22.27
2023-03-23T20:08:34.028Z,22.28
2023-03-23T20:11:05.242Z,22.27
2023-03-23T20:13:32.911Z,22.26
2023-03-23T20:16:00.893Z,22.27
2023-03-23T20:18:29.174Z,22.27
2023-03-23T20:21:07.468Z,22.27
2023-03-23T20:23:35.033Z,22.26
2023-03-23T20:26:06.687Z,22.26
2023-03-23T20:28:33.645Z,22.26
2023-03-23T20:31:19.822Z,22.25
2023-03-23T20:33:59.814Z,22.25
2023-03-23T20:36:34.766Z,22.24
2023-03-23T20:39:11.279Z,22.24
2023-03-23T20:41:38.911Z,22.22
2023-03-23T20:44:07.512Z,22.22
2023-03-23T20:46:35.252Z,22.20
2023-03-23T20:49:02.336Z,22.21
2023-03-23T20:51:28.849Z,22.20
2023-03-23T20:53:55.684Z,22.19
2023-03-23T20:56:22.492Z,22.19
2023-03-23T20:58:49.333Z,22.20
2023-03-23T21:01:16.007Z,22.19
2023-03-23T21:03:43.917Z,22.17
2023-03-23T21:06:10.866Z,22.16
2023-03-23T21:08:39.248Z,22.15
2023-03-23T21:11:08.212Z,22.16
2023-03-23T21:13:34.962Z,22.15
2023-03-23T21:16:04.019Z,22.14
2023-03-23T21:18:31.242Z,22.12
2023-03-23T21:20:58.378Z,22.10
2023-03-23T21:23:26.883Z,22.09
2023-03-23T21:25:54.584Z,22.11
2023-03-23T21:28:22.052Z,22.14
2023-03-23T21:30:49.432Z,22.13
2023-03-23T21:33:17.028Z,22.12
2023-03-23T21:35:43.555Z,22.14
2023-03-23T21:38:14.483Z,22.12
2023-03-23T21:40:44.820Z,22.13
2023-03-23T21:43:14.892Z,22.13
2023-03-23T21:45:42.806Z,22.10
2023-03-23T21:48:10.842Z,22.07
2023-03-23T21:50:42.176Z,22.07
2023-03-23T21:53:12.895Z,22.07
2023-03-23T21:55:44.864Z,22.06
2023-03-23T21:58:11.638Z,22.05
2023-03-23T22:00:38.163Z,22.04
2023-03-23T22:03:04.852Z,22.04
2023-03-23T22:05:32.230Z,22.04
2023-03-23T22:07:58.834Z,22.05
2023-03-23T22:10:25.392Z,22.03
2023-03-23T22:12:54.998Z,22.03
2023-03-23T22:15:27.793Z,22.02
2023-03-23T22:17:55.559Z,22.01
2023-03-23T22:20:22.520Z,22.00
2023-03-23T22:22:49.229Z,21.99
2023-03-23T22:25:15.832Z,21.98
2023-03-23T22:27:42.803Z,21.99
2023-03-23T22:30:09.780Z,21.99
2023-03-23T22:32:36.482Z,21.98
2023-03-23T22:35:04.966Z,21.98
2023-03-23T22:37:31.622Z,21.96
2023-03-23T22:39:58.143Z,21.96
2023-03-23T22:42:25.069Z,21.95
2023-03-23T22:44:51.643Z,21.96
2023-03-23T22:47:18.322Z,21.94
2023-03-23T22:49:44.957Z,21.92
2023-03-23T22:52:11.528Z,21.91
2023-03-23T22:54:38.148Z,21.92
2023-03-23T22:57:04.707Z,21.91
2023-03-23T22:59:31.318Z,21.89
2023-03-23T23:01:57.945Z,21.89
2023-03-23T23:04:24.696Z,21.88
2023-03-23T23:06:57.477Z,21.88
2023-03-23T23:09:29.608Z,21.85
2023-03-23T23:11:56.265Z,21.88
2023-03-23T23:14:22.791Z,21.85
2023-03-23T23:16:49.395Z,21.85
2023-03-23T23:19:16.075Z,21.86
2023-03-23T23:21:42.595Z,21.84
2023-03-23T23:24:09.175Z,21.84
2023-03-23T23:26:36.527Z,21.82
2023-03-23T23:29:04.013Z,21.82
2023-03-23T23:31:33.545Z,21.82
2023-03-23T23:34:01.491Z,21.80
2023-03-23T23:36:30.318Z,21.79
2023-03-23T23:38:58.693Z,21.78
2023-03-23T23:41:27.521Z,21.79
2023-03-23T23:43:54.110Z,21.78
2023-03-23T23:46:20.913Z,21.78
2023-03-23T23:48:47.533Z,21.77
2023-03-23T23:51:15.348Z,21.76
2023-03-23T23:53:46.256Z,21.77
2023-03-23T23:56:14.112Z,21.76
2023-03-23T23:58:40.842Z,21.73
